Holmes Chapel, United Kingdom
Current Conditions -  °F | °C
As of 9:50 PM on Tuesday 25 Nov 2014 (Local Time) from EGCC Reporting Station
Drizzle Drizzle  
Wind Chill: 37°   Ceiling: 4000
Heat Index: 43°   Visibility: 6mi
Dew Point: 39°   Wind: 9mph
Humidity: 87%   Direction: 50°NE
Pressure: 30.12"   Gusts: NA
Location:  53.2°N, 2.36°W
Report Text: EGCC 252150Z 05008KT 9999 -DZ FEW028 BKN040 06/04 Q1020 NOSIG
Loading
Personal Weather Stations






























Interactive Weather Map New forecast layout! Learn more

10-Day Weather Forecast

Advertisements
Track Severe Weather on mobile